sensor_id;sensor_type;location;lat;lon;timestamp;P1;durP1;ratioP1;P2;durP2;ratioP2
3781;SDS011;6881;49.962;7.718;2023-02-01T00:00:51;13.83;;;8.20;;
3781;SDS011;6881;49.962;7.718;2023-02-01T00:03:16;10.63;;;7.77;;
3781;SDS011;6881;49.962;7.718;2023-02-01T00:05:43;13.00;;;8.67;;
3781;SDS011;6881;49.962;7.718;2023-02-01T00:08:09;17.40;;;10.30;;
3781;SDS011;6881;49.962;7.718;2023-02-01T00:10:34;12.50;;;10.00;;
3781;SDS011;6881;49.962;7.718;2023-02-01T00:12:59;17.63;;;10.70;;
3781;SDS011;6881;49.962;7.718;2023-02-01T00:15:25;14.10;;;8.00;;
3781;SDS011;6881;49.962;7.718;2023-02-01T00:17:54;11.80;;;9.83;;
3781;SDS011;6881;49.962;7.718;2023-02-01T00:20:19;13.93;;;10.43;;
3781;SDS011;6881;49.962;7.718;2023-02-01T00:22:45;16.50;;;10.17;;
3781;SDS011;6881;49.962;7.718;2023-02-01T00:25:10;12.20;;;8.83;;
3781;SDS011;6881;49.962;7.718;2023-02-01T00:27:35;12.97;;;10.90;;
3781;SDS011;6881;49.962;7.718;2023-02-01T00:30:01;14.70;;;10.87;;
3781;SDS011;6881;49.962;7.718;2023-02-01T00:32:26;14.00;;;10.30;;
3781;SDS011;6881;49.962;7.718;2023-02-01T00:34:52;14.70;;;10.40;;
3781;SDS011;6881;49.962;7.718;2023-02-01T00:37:17;12.77;;;9.43;;
3781;SDS011;6881;49.962;7.718;2023-02-01T00:39:42;14.23;;;10.10;;
3781;SDS011;6881;49.962;7.718;2023-02-01T00:42:08;18.87;;;10.00;;
3781;SDS011;6881;49.962;7.718;2023-02-01T00:44:33;12.30;;;9.57;;
3781;SDS011;6881;49.962;7.718;2023-02-01T00:47:00;15.90;;;8.67;;
3781;SDS011;6881;49.962;7.718;2023-02-01T00:49:25;12.50;;;8.03;;
3781;SDS011;6881;49.962;7.718;2023-02-01T00:51:51;13.90;;;8.83;;
3781;SDS011;6881;49.962;7.718;2023-02-01T00:54:16;11.83;;;7.80;;
3781;SDS011;6881;49.962;7.718;2023-02-01T00:56:41;12.60;;;8.27;;
3781;SDS011;6881;49.962;7.718;2023-02-01T00:59:10;9.80;;;7.23;;
3781;SDS011;6881;49.962;7.718;2023-02-01T01:01:36;10.70;;;7.87;;
3781;SDS011;6881;49.962;7.718;2023-02-01T01:04:01;13.10;;;7.73;;
3781;SDS011;6881;49.962;7.718;2023-02-01T01:06:27;11.73;;;7.70;;
3781;SDS011;6881;49.962;7.718;2023-02-01T01:08:55;10.47;;;7.53;;
3781;SDS011;6881;49.962;7.718;2023-02-01T01:11:22;9.30;;;7.43;;
3781;SDS011;6881;49.962;7.718;2023-02-01T01:13:50;9.67;;;6.97;;
3781;SDS011;6881;49.962;7.718;2023-02-01T01:16:17;8.77;;;6.87;;
3781;SDS011;6881;49.962;7.718;2023-02-01T01:18:43;9.80;;;5.27;;
3781;SDS011;6881;49.962;7.718;2023-02-01T01:21:09;7.60;;;5.97;;
3781;SDS011;6881;49.962;7.718;2023-02-01T01:23:36;6.90;;;4.80;;
3781;SDS011;6881;49.962;7.718;2023-02-01T01:26:04;6.97;;;5.30;;
3781;SDS011;6881;49.962;7.718;2023-02-01T01:28:31;10.40;;;6.80;;
3781;SDS011;6881;49.962;7.718;2023-02-01T01:30:56;9.70;;;6.10;;
3781;SDS011;6881;49.962;7.718;2023-02-01T01:33:21;9.70;;;5.40;;
3781;SDS011;6881;49.962;7.718;2023-02-01T01:35:47;8.00;;;6.00;;
3781;SDS011;6881;49.962;7.718;2023-02-01T01:38:12;8.50;;;6.57;;
3781;SDS011;6881;49.962;7.718;2023-02-01T01:40:37;9.30;;;6.40;;
3781;SDS011;6881;49.962;7.718;2023-02-01T01:43:03;8.07;;;5.53;;
3781;SDS011;6881;49.962;7.718;2023-02-01T01:45:31;8.90;;;6.20;;
3781;SDS011;6881;49.962;7.718;2023-02-01T01:47:59;8.53;;;6.50;;
3781;SDS011;6881;49.962;7.718;2023-02-01T01:50:28;13.60;;;6.83;;
3781;SDS011;6881;49.962;7.718;2023-02-01T01:52:56;8.80;;;5.93;;
3781;SDS011;6881;49.962;7.718;2023-02-01T01:55:24;8.50;;;5.97;;
3781;SDS011;6881;49.962;7.718;2023-02-01T01:57:53;10.10;;;7.20;;
3781;SDS011;6881;49.962;7.718;2023-02-01T02:00:22;11.30;;;5.93;;
3781;SDS011;6881;49.962;7.718;2023-02-01T02:02:49;8.73;;;6.17;;
3781;SDS011;6881;49.962;7.718;2023-02-01T02:05:20;6.77;;;5.50;;
3781;SDS011;6881;49.962;7.718;2023-02-01T02:07:46;7.60;;;5.30;;
3781;SDS011;6881;49.962;7.718;2023-02-01T02:10:14;8.83;;;5.30;;
3781;SDS011;6881;49.962;7.718;2023-02-01T02:12:41;9.90;;;5.43;;
3781;SDS011;6881;49.962;7.718;2023-02-01T02:15:08;6.87;;;4.70;;
3781;SDS011;6881;49.962;7.718;2023-02-01T02:20:15;5.33;;;3.57;;
3781;SDS011;6881;49.962;7.718;2023-02-01T02:22:52;4.90;;;3.90;;
3781;SDS011;6881;49.962;7.718;2023-02-01T02:34:14;6.13;;;4.13;;
3781;SDS011;6881;49.962;7.718;2023-02-01T02:39:44;4.93;;;3.83;;
3781;SDS011;6881;49.962;7.718;2023-02-01T02:45:17;5.63;;;3.60;;
3781;SDS011;6881;49.962;7.718;2023-02-01T02:48:28;6.33;;;4.53;;
3781;SDS011;6881;49.962;7.718;2023-02-01T02:56:42;9.23;;;3.97;;
3781;SDS011;6881;49.962;7.718;2023-02-01T02:59:26;5.90;;;4.30;;
3781;SDS011;6881;49.962;7.718;2023-02-01T03:02:12;6.70;;;4.37;;
3781;SDS011;6881;49.962;7.718;2023-02-01T03:04:56;5.13;;;4.43;;
3781;SDS011;6881;49.962;7.718;2023-02-01T03:10:55;8.90;;;5.27;;
3781;SDS011;6881;49.962;7.718;2023-02-01T03:13:02;7.53;;;4.90;;
3781;SDS011;6881;49.962;7.718;2023-02-01T03:18:11;8.43;;;5.30;;
3781;SDS011;6881;49.962;7.718;2023-02-01T03:20:42;7.90;;;5.20;;
3781;SDS011;6881;49.962;7.718;2023-02-01T03:23:10;11.03;;;5.33;;
3781;SDS011;6881;49.962;7.718;2023-02-01T03:25:36;6.73;;;4.73;;
3781;SDS011;6881;49.962;7.718;2023-02-01T03:28:03;9.43;;;5.50;;
3781;SDS011;6881;49.962;7.718;2023-02-01T03:30:37;10.23;;;5.03;;
3781;SDS011;6881;49.962;7.718;2023-02-01T03:33:09;9.00;;;4.50;;
3781;SDS011;6881;49.962;7.718;2023-02-01T03:43:55;8.00;;;5.27;;
3781;SDS011;6881;49.962;7.718;2023-02-01T03:46:51;8.63;;;5.23;;
3781;SDS011;6881;49.962;7.718;2023-02-01T03:49:28;5.83;;;3.87;;
3781;SDS011;6881;49.962;7.718;2023-02-01T03:51:54;8.97;;;4.20;;
3781;SDS011;6881;49.962;7.718;2023-02-01T03:54:23;7.90;;;3.93;;
3781;SDS011;6881;49.962;7.718;2023-02-01T03:56:49;6.03;;;4.10;;
3781;SDS011;6881;49.962;7.718;2023-02-01T03:59:15;6.63;;;5.23;;
3781;SDS011;6881;49.962;7.718;2023-02-01T04:01:41;5.57;;;4.97;;
3781;SDS011;6881;49.962;7.718;2023-02-01T04:04:06;6.23;;;3.97;;
3781;SDS011;6881;49.962;7.718;2023-02-01T04:06:32;10.67;;;5.20;;
3781;SDS011;6881;49.962;7.718;2023-02-01T04:08:57;7.40;;;5.47;;
3781;SDS011;6881;49.962;7.718;2023-02-01T04:11:23;6.27;;;4.03;;
3781;SDS011;6881;49.962;7.718;2023-02-01T04:13:48;5.90;;;4.40;;
3781;SDS011;6881;49.962;7.718;2023-02-01T04:16:13;13.47;;;5.40;;
3781;SDS011;6881;49.962;7.718;2023-02-01T04:18:39;9.43;;;4.43;;
3781;SDS011;6881;49.962;7.718;2023-02-01T04:21:04;5.80;;;4.30;;
3781;SDS011;6881;49.962;7.718;2023-02-01T04:23:30;7.87;;;4.93;;
3781;SDS011;6881;49.962;7.718;2023-02-01T04:26:00;11.23;;;4.20;;
3781;SDS011;6881;49.962;7.718;2023-02-01T04:28:26;12.47;;;4.67;;
3781;SDS011;6881;49.962;7.718;2023-02-01T04:30:51;10.90;;;5.73;;
3781;SDS011;6881;49.962;7.718;2023-02-01T04:33:17;14.20;;;5.10;;
3781;SDS011;6881;49.962;7.718;2023-02-01T04:35:42;6.43;;;4.00;;
3781;SDS011;6881;49.962;7.718;2023-02-01T04:38:07;12.60;;;4.73;;
3781;SDS011;6881;49.962;7.718;2023-02-01T04:40:33;12.33;;;5.50;;
3781;SDS011;6881;49.962;7.718;2023-02-01T04:42:58;9.37;;;5.90;;
3781;SDS011;6881;49.962;7.718;2023-02-01T04:45:25;15.47;;;4.77;;
3781;SDS011;6881;49.962;7.718;2023-02-01T04:47:50;9.13;;;4.03;;
3781;SDS011;6881;49.962;7.718;2023-02-01T04:50:16;9.00;;;4.37;;
3781;SDS011;6881;49.962;7.718;2023-02-01T04:52:41;11.40;;;4.60;;
3781;SDS011;6881;49.962;7.718;2023-02-01T04:55:07;18.13;;;4.63;;
3781;SDS011;6881;49.962;7.718;2023-02-01T04:57:32;7.60;;;4.57;;
3781;SDS011;6881;49.962;7.718;2023-02-01T04:59:58;8.67;;;4.67;;
3781;SDS011;6881;49.962;7.718;2023-02-01T05:02:23;9.87;;;5.30;;
3781;SDS011;6881;49.962;7.718;2023-02-01T05:04:49;9.97;;;3.90;;
3781;SDS011;6881;49.962;7.718;2023-02-01T05:07:15;8.30;;;4.90;;
3781;SDS011;6881;49.962;7.718;2023-02-01T05:09:40;8.67;;;4.67;;
3781;SDS011;6881;49.962;7.718;2023-02-01T05:12:06;5.57;;;3.50;;
3781;SDS011;6881;49.962;7.718;2023-02-01T05:14:50;8.70;;;4.00;;
3781;SDS011;6881;49.962;7.718;2023-02-01T05:17:15;8.97;;;4.53;;
3781;SDS011;6881;49.962;7.718;2023-02-01T05:19:41;6.60;;;4.00;;
3781;SDS011;6881;49.962;7.718;2023-02-01T05:22:06;9.10;;;4.63;;
3781;SDS011;6881;49.962;7.718;2023-02-01T05:24:31;7.80;;;4.87;;
3781;SDS011;6881;49.962;7.718;2023-02-01T05:26:57;14.33;;;5.40;;
3781;SDS011;6881;49.962;7.718;2023-02-01T05:29:22;15.53;;;5.50;;
3781;SDS011;6881;49.962;7.718;2023-02-01T05:31:47;10.50;;;5.30;;
3781;SDS011;6881;49.962;7.718;2023-02-01T05:34:13;8.70;;;4.53;;
3781;SDS011;6881;49.962;7.718;2023-02-01T05:36:39;7.20;;;5.03;;
3781;SDS011;6881;49.962;7.718;2023-02-01T05:39:04;6.80;;;4.20;;
3781;SDS011;6881;49.962;7.718;2023-02-01T05:41:30;9.00;;;4.60;;
3781;SDS011;6881;49.962;7.718;2023-02-01T05:43:55;7.57;;;5.17;;
3781;SDS011;6881;49.962;7.718;2023-02-01T05:46:20;5.10;;;3.67;;
3781;SDS011;6881;49.962;7.718;2023-02-01T05:48:46;5.87;;;3.50;;
3781;SDS011;6881;49.962;7.718;2023-02-01T05:51:11;4.20;;;2.20;;
3781;SDS011;6881;49.962;7.718;2023-02-01T05:53:37;3.13;;;1.60;;
3781;SDS011;6881;49.962;7.718;2023-02-01T05:56:02;5.07;;;2.53;;
3781;SDS011;6881;49.962;7.718;2023-02-01T05:58:28;4.80;;;3.13;;
3781;SDS011;6881;49.962;7.718;2023-02-01T06:00:54;8.93;;;3.37;;
3781;SDS011;6881;49.962;7.718;2023-02-01T06:03:19;6.47;;;3.27;;
3781;SDS011;6881;49.962;7.718;2023-02-01T06:05:45;4.07;;;2.97;;
3781;SDS011;6881;49.962;7.718;2023-02-01T06:08:11;5.10;;;3.17;;
3781;SDS011;6881;49.962;7.718;2023-02-01T06:10:36;5.00;;;3.97;;
3781;SDS011;6881;49.962;7.718;2023-02-01T06:13:02;6.77;;;4.87;;
3781;SDS011;6881;49.962;7.718;2023-02-01T06:15:28;7.37;;;4.33;;
3781;SDS011;6881;49.962;7.718;2023-02-01T06:17:53;5.80;;;3.90;;
3781;SDS011;6881;49.962;7.718;2023-02-01T06:20:19;8.73;;;4.47;;
3781;SDS011;6881;49.962;7.718;2023-02-01T06:22:45;8.83;;;4.83;;
3781;SDS011;6881;49.962;7.718;2023-02-01T06:25:10;11.17;;;5.47;;
3781;SDS011;6881;49.962;7.718;2023-02-01T06:27:35;10.73;;;5.67;;
3781;SDS011;6881;49.962;7.718;2023-02-01T06:30:02;8.23;;;4.90;;
3781;SDS011;6881;49.962;7.718;2023-02-01T06:32:28;15.00;;;5.70;;
3781;SDS011;6881;49.962;7.718;2023-02-01T06:34:53;7.90;;;5.00;;
3781;SDS011;6881;49.962;7.718;2023-02-01T06:37:20;11.33;;;6.03;;
3781;SDS011;6881;49.962;7.718;2023-02-01T06:39:45;9.10;;;5.57;;
3781;SDS011;6881;49.962;7.718;2023-02-01T06:42:10;15.43;;;7.20;;
3781;SDS011;6881;49.962;7.718;2023-02-01T06:44:36;13.77;;;8.40;;
3781;SDS011;6881;49.962;7.718;2023-02-01T06:47:02;14.60;;;8.23;;
3781;SDS011;6881;49.962;7.718;2023-02-01T06:49:28;15.33;;;6.97;;
3781;SDS011;6881;49.962;7.718;2023-02-01T06:51:53;11.10;;;7.03;;
3781;SDS011;6881;49.962;7.718;2023-02-01T06:54:19;12.00;;;6.20;;
3781;SDS011;6881;49.962;7.718;2023-02-01T06:56:44;15.43;;;7.63;;
3781;SDS011;6881;49.962;7.718;2023-02-01T06:59:09;11.50;;;7.63;;
3781;SDS011;6881;49.962;7.718;2023-02-01T07:01:35;11.67;;;5.77;;
3781;SDS011;6881;49.962;7.718;2023-02-01T07:04:00;12.37;;;5.70;;
3781;SDS011;6881;49.962;7.718;2023-02-01T07:06:26;14.03;;;6.03;;
3781;SDS011;6881;49.962;7.718;2023-02-01T07:08:51;13.20;;;5.17;;
3781;SDS011;6881;49.962;7.718;2023-02-01T07:11:17;14.40;;;5.20;;
3781;SDS011;6881;49.962;7.718;2023-02-01T07:13:43;12.30;;;5.70;;
3781;SDS011;6881;49.962;7.718;2023-02-01T07:16:10;8.47;;;5.33;;
3781;SDS011;6881;49.962;7.718;2023-02-01T07:18:37;10.50;;;5.37;;
3781;SDS011;6881;49.962;7.718;2023-02-01T07:21:03;8.47;;;4.90;;
3781;SDS011;6881;49.962;7.718;2023-02-01T07:23:28;14.43;;;5.37;;
3781;SDS011;6881;49.962;7.718;2023-02-01T07:25:54;15.87;;;5.57;;
3781;SDS011;6881;49.962;7.718;2023-02-01T07:28:24;10.83;;;5.40;;
3781;SDS011;6881;49.962;7.718;2023-02-01T07:30:49;11.47;;;5.27;;
3781;SDS011;6881;49.962;7.718;2023-02-01T07:33:18;10.30;;;5.13;;
3781;SDS011;6881;49.962;7.718;2023-02-01T07:35:45;9.77;;;5.00;;
3781;SDS011;6881;49.962;7.718;2023-02-01T07:38:11;13.40;;;4.87;;
3781;SDS011;6881;49.962;7.718;2023-02-01T07:40:36;9.80;;;5.00;;
3781;SDS011;6881;49.962;7.718;2023-02-01T07:43:01;11.53;;;4.23;;
3781;SDS011;6881;49.962;7.718;2023-02-01T07:45:26;5.03;;;3.83;;
3781;SDS011;6881;49.962;7.718;2023-02-01T07:47:52;12.03;;;5.90;;
3781;SDS011;6881;49.962;7.718;2023-02-01T07:50:20;9.40;;;3.93;;
3781;SDS011;6881;49.962;7.718;2023-02-01T07:52:45;10.80;;;4.80;;
3781;SDS011;6881;49.962;7.718;2023-02-01T07:55:11;8.23;;;4.50;;
3781;SDS011;6881;49.962;7.718;2023-02-01T07:57:36;7.07;;;4.40;;
3781;SDS011;6881;49.962;7.718;2023-02-01T08:00:02;16.40;;;5.10;;
3781;SDS011;6881;49.962;7.718;2023-02-01T08:02:46;9.20;;;4.20;;
3781;SDS011;6881;49.962;7.718;2023-02-01T08:05:11;8.47;;;4.30;;
3781;SDS011;6881;49.962;7.718;2023-02-01T08:07:37;15.47;;;5.10;;
3781;SDS011;6881;49.962;7.718;2023-02-01T08:10:02;12.23;;;4.93;;
3781;SDS011;6881;49.962;7.718;2023-02-01T08:12:30;9.57;;;3.90;;
3781;SDS011;6881;49.962;7.718;2023-02-01T08:14:55;5.87;;;3.20;;
3781;SDS011;6881;49.962;7.718;2023-02-01T08:17:21;8.27;;;3.93;;
3781;SDS011;6881;49.962;7.718;2023-02-01T08:19:46;12.10;;;4.30;;
3781;SDS011;6881;49.962;7.718;2023-02-01T08:22:12;7.70;;;3.20;;
3781;SDS011;6881;49.962;7.718;2023-02-01T08:24:37;8.57;;;3.50;;
3781;SDS011;6881;49.962;7.718;2023-02-01T08:27:06;4.97;;;2.60;;
3781;SDS011;6881;49.962;7.718;2023-02-01T08:29:32;6.63;;;3.67;;
3781;SDS011;6881;49.962;7.718;2023-02-01T08:31:57;8.77;;;3.90;;
3781;SDS011;6881;49.962;7.718;2023-02-01T08:34:23;6.37;;;3.10;;
3781;SDS011;6881;49.962;7.718;2023-02-01T08:36:48;5.10;;;4.00;;
3781;SDS011;6881;49.962;7.718;2023-02-01T08:39:14;8.93;;;3.73;;
3781;SDS011;6881;49.962;7.718;2023-02-01T08:41:39;9.60;;;3.50;;
3781;SDS011;6881;49.962;7.718;2023-02-01T08:44:07;11.90;;;3.70;;
3781;SDS011;6881;49.962;7.718;2023-02-01T08:46:32;10.13;;;4.37;;
3781;SDS011;6881;49.962;7.718;2023-02-01T08:48:57;8.83;;;4.07;;
3781;SDS011;6881;49.962;7.718;2023-02-01T08:51:23;12.27;;;4.53;;
3781;SDS011;6881;49.962;7.718;2023-02-01T08:53:49;11.47;;;3.80;;
3781;SDS011;6881;49.962;7.718;2023-02-01T08:56:15;12.13;;;3.73;;
3781;SDS011;6881;49.962;7.718;2023-02-01T08:58:41;4.63;;;3.27;;
3781;SDS011;6881;49.962;7.718;2023-02-01T09:01:08;11.50;;;3.63;;
3781;SDS011;6881;49.962;7.718;2023-02-01T09:03:37;7.53;;;4.03;;
3781;SDS011;6881;49.962;7.718;2023-02-01T09:06:04;15.83;;;6.13;;
3781;SDS011;6881;49.962;7.718;2023-02-01T09:08:31;14.43;;;4.97;;
3781;SDS011;6881;49.962;7.718;2023-02-01T09:11:04;12.67;;;4.70;;
3781;SDS011;6881;49.962;7.718;2023-02-01T09:13:31;12.83;;;3.50;;
3781;SDS011;6881;49.962;7.718;2023-02-01T09:15:56;17.10;;;4.40;;
3781;SDS011;6881;49.962;7.718;2023-02-01T09:18:23;10.53;;;4.80;;
3781;SDS011;6881;49.962;7.718;2023-02-01T09:20:49;12.43;;;3.83;;
3781;SDS011;6881;49.962;7.718;2023-02-01T09:23:14;5.20;;;3.03;;
3781;SDS011;6881;49.962;7.718;2023-02-01T09:25:40;9.60;;;3.20;;
3781;SDS011;6881;49.962;7.718;2023-02-01T09:28:05;14.03;;;3.10;;
3781;SDS011;6881;49.962;7.718;2023-02-01T09:30:32;8.30;;;3.30;;
3781;SDS011;6881;49.962;7.718;2023-02-01T09:32:57;6.13;;;2.37;;
3781;SDS011;6881;49.962;7.718;2023-02-01T09:35:23;7.73;;;3.03;;
3781;SDS011;6881;49.962;7.718;2023-02-01T09:37:48;11.53;;;2.70;;
3781;SDS011;6881;49.962;7.718;2023-02-01T09:40:14;7.23;;;4.37;;
3781;SDS011;6881;49.962;7.718;2023-02-01T09:42:46;7.40;;;2.75;;
3781;SDS011;6881;49.962;7.718;2023-02-01T09:45:38;5.30;;;3.03;;
3781;SDS011;6881;49.962;7.718;2023-02-01T09:48:12;9.93;;;3.30;;
3781;SDS011;6881;49.962;7.718;2023-02-01T09:50:41;6.93;;;3.83;;
3781;SDS011;6881;49.962;7.718;2023-02-01T09:53:33;5.53;;;2.40;;
3781;SDS011;6881;49.962;7.718;2023-02-01T09:56:02;5.77;;;2.50;;
3781;SDS011;6881;49.962;7.718;2023-02-01T09:58:38;6.03;;;3.00;;
3781;SDS011;6881;49.962;7.718;2023-02-01T10:01:40;10.97;;;3.07;;
3781;SDS011;6881;49.962;7.718;2023-02-01T10:04:08;8.23;;;2.67;;
3781;SDS011;6881;49.962;7.718;2023-02-01T10:09:13;8.57;;;3.37;;
3781;SDS011;6881;49.962;7.718;2023-02-01T10:14:27;9.87;;;2.93;;
3781;SDS011;6881;49.962;7.718;2023-02-01T10:25:12;9.77;;;2.97;;
3781;SDS011;6881;49.962;7.718;2023-02-01T10:27:39;4.20;;;2.50;;
3781;SDS011;6881;49.962;7.718;2023-02-01T10:30:27;10.73;;;3.50;;
3781;SDS011;6881;49.962;7.718;2023-02-01T10:33:19;12.03;;;4.00;;
3781;SDS011;6881;49.962;7.718;2023-02-01T10:35:52;5.60;;;2.23;;
3781;SDS011;6881;49.962;7.718;2023-02-01T10:38:23;6.80;;;2.50;;
3781;SDS011;6881;49.962;7.718;2023-02-01T10:40:51;6.23;;;2.67;;
3781;SDS011;6881;49.962;7.718;2023-02-01T10:43:17;8.30;;;3.10;;
3781;SDS011;6881;49.962;7.718;2023-02-01T10:45:42;4.40;;;2.87;;
3781;SDS011;6881;49.962;7.718;2023-02-01T10:48:08;7.03;;;2.77;;
3781;SDS011;6881;49.962;7.718;2023-02-01T10:50:44;6.47;;;3.07;;
3781;SDS011;6881;49.962;7.718;2023-02-01T10:53:22;12.03;;;3.07;;
3781;SDS011;6881;49.962;7.718;2023-02-01T10:55:51;14.20;;;4.90;;
3781;SDS011;6881;49.962;7.718;2023-02-01T10:58:18;6.80;;;3.20;;
3781;SDS011;6881;49.962;7.718;2023-02-01T11:06:24;15.90;;;4.20;;
3781;SDS011;6881;49.962;7.718;2023-02-01T11:09:00;10.73;;;3.63;;
3781;SDS011;6881;49.962;7.718;2023-02-01T11:12:19;5.07;;;2.73;;
3781;SDS011;6881;49.962;7.718;2023-02-01T11:17:02;10.93;;;3.23;;
3781;SDS011;6881;49.962;7.718;2023-02-01T11:19:47;8.47;;;3.60;;
3781;SDS011;6881;49.962;7.718;2023-02-01T11:22:25;6.43;;;3.13;;
3781;SDS011;6881;49.962;7.718;2023-02-01T11:24:52;10.70;;;3.30;;
3781;SDS011;6881;49.962;7.718;2023-02-01T11:27:19;4.13;;;2.53;;
3781;SDS011;6881;49.962;7.718;2023-02-01T11:29:46;7.10;;;3.30;;
3781;SDS011;6881;49.962;7.718;2023-02-01T11:32:13;13.03;;;6.10;;
3781;SDS011;6881;49.962;7.718;2023-02-01T11:34:44;14.93;;;4.27;;
3781;SDS011;6881;49.962;7.718;2023-02-01T11:37:17;12.20;;;4.17;;
3781;SDS011;6881;49.962;7.718;2023-02-01T11:39:44;17.00;;;5.80;;
3781;SDS011;6881;49.962;7.718;2023-02-01T11:42:19;16.87;;;5.00;;
3781;SDS011;6881;49.962;7.718;2023-02-01T11:44:45;13.43;;;6.47;;
3781;SDS011;6881;49.962;7.718;2023-02-01T11:49:43;10.40;;;4.67;;
3781;SDS011;6881;49.962;7.718;2023-02-01T11:55:05;16.77;;;4.47;;
3781;SDS011;6881;49.962;7.718;2023-02-01T11:57:41;22.63;;;4.73;;
3781;SDS011;6881;49.962;7.718;2023-02-01T12:17:05;17.90;;;6.03;;
3781;SDS011;6881;49.962;7.718;2023-02-01T12:35:59;11.97;;;4.97;;
3781;SDS011;6881;49.962;7.718;2023-02-01T12:38:39;12.20;;;4.43;;
3781;SDS011;6881;49.962;7.718;2023-02-01T12:41:24;7.13;;;3.33;;
3781;SDS011;6881;49.962;7.718;2023-02-01T12:44:04;9.13;;;4.43;;
3781;SDS011;6881;49.962;7.718;2023-02-01T12:49:57;4.87;;;3.63;;
3781;SDS011;6881;49.962;7.718;2023-02-01T12:52:27;10.47;;;3.40;;
3781;SDS011;6881;49.962;7.718;2023-02-01T12:55:03;9.03;;;2.90;;
3781;SDS011;6881;49.962;7.718;2023-02-01T12:57:31;6.13;;;2.70;;
3781;SDS011;6881;49.962;7.718;2023-02-01T13:03:15;4.57;;;2.50;;
3781;SDS011;6881;49.962;7.718;2023-02-01T13:06:01;8.83;;;3.10;;
3781;SDS011;6881;49.962;7.718;2023-02-01T13:08:42;8.00;;;3.47;;
3781;SDS011;6881;49.962;7.718;2023-02-01T13:17:11;7.53;;;2.40;;
3781;SDS011;6881;49.962;7.718;2023-02-01T13:19:42;7.70;;;3.20;;
3781;SDS011;6881;49.962;7.718;2023-02-01T13:25:17;7.87;;;3.03;;
3781;SDS011;6881;49.962;7.718;2023-02-01T13:27:49;4.70;;;2.60;;
3781;SDS011;6881;49.962;7.718;2023-02-01T13:41:27;8.60;;;3.27;;
3781;SDS011;6881;49.962;7.718;2023-02-01T13:43:58;7.00;;;3.27;;
3781;SDS011;6881;49.962;7.718;2023-02-01T13:46:26;5.90;;;2.10;;
3781;SDS011;6881;49.962;7.718;2023-02-01T13:48:55;6.13;;;2.80;;
3781;SDS011;6881;49.962;7.718;2023-02-01T13:51:43;4.63;;;2.40;;
3781;SDS011;6881;49.962;7.718;2023-02-01T13:54:30;5.57;;;2.80;;
3781;SDS011;6881;49.962;7.718;2023-02-01T13:56:58;5.53;;;3.03;;
3781;SDS011;6881;49.962;7.718;2023-02-01T14:05:09;8.83;;;2.77;;
3781;SDS011;6881;49.962;7.718;2023-02-01T14:07:35;7.10;;;2.40;;
3781;SDS011;6881;49.962;7.718;2023-02-01T14:13:12;8.40;;;2.50;;
3781;SDS011;6881;49.962;7.718;2023-02-01T14:23:41;3.83;;;2.40;;
3781;SDS011;6881;49.962;7.718;2023-02-01T14:26:09;4.30;;;2.27;;
3781;SDS011;6881;49.962;7.718;2023-02-01T14:28:39;8.33;;;2.83;;
3781;SDS011;6881;49.962;7.718;2023-02-01T14:31:14;4.77;;;2.30;;
3781;SDS011;6881;49.962;7.718;2023-02-01T14:33:49;5.27;;;2.30;;
3781;SDS011;6881;49.962;7.718;2023-02-01T14:36:21;6.13;;;2.40;;
3781;SDS011;6881;49.962;7.718;2023-02-01T14:38:48;8.30;;;3.10;;
3781;SDS011;6881;49.962;7.718;2023-02-01T14:49:30;5.43;;;2.80;;
3781;SDS011;6881;49.962;7.718;2023-02-01T14:51:57;3.00;;;2.47;;
3781;SDS011;6881;49.962;7.718;2023-02-01T14:54:23;8.63;;;2.90;;
3781;SDS011;6881;49.962;7.718;2023-02-01T14:56:50;5.53;;;2.40;;
3781;SDS011;6881;49.962;7.718;2023-02-01T14:59:16;4.33;;;2.47;;
3781;SDS011;6881;49.962;7.718;2023-02-01T15:01:49;5.63;;;2.70;;
3781;SDS011;6881;49.962;7.718;2023-02-01T15:04:17;6.90;;;2.37;;
3781;SDS011;6881;49.962;7.718;2023-02-01T15:09:15;7.07;;;2.07;;
3781;SDS011;6881;49.962;7.718;2023-02-01T15:14:25;7.60;;;2.70;;
3781;SDS011;6881;49.962;7.718;2023-02-01T15:16:52;4.50;;;1.73;;
3781;SDS011;6881;49.962;7.718;2023-02-01T15:19:21;5.73;;;2.33;;
3781;SDS011;6881;49.962;7.718;2023-02-01T15:21:48;5.27;;;1.93;;
3781;SDS011;6881;49.962;7.718;2023-02-01T15:24:24;12.13;;;3.23;;
3781;SDS011;6881;49.962;7.718;2023-02-01T15:26:51;8.33;;;2.87;;
3781;SDS011;6881;49.962;7.718;2023-02-01T15:29:18;7.20;;;3.30;;
3781;SDS011;6881;49.962;7.718;2023-02-01T15:31:46;11.13;;;2.80;;
3781;SDS011;6881;49.962;7.718;2023-02-01T15:34:13;4.87;;;2.17;;
3781;SDS011;6881;49.962;7.718;2023-02-01T15:36:39;7.90;;;2.30;;
3781;SDS011;6881;49.962;7.718;2023-02-01T15:39:15;11.40;;;3.00;;
3781;SDS011;6881;49.962;7.718;2023-02-01T15:41:57;7.70;;;2.30;;
3781;SDS011;6881;49.962;7.718;2023-02-01T15:46:52;6.50;;;1.67;;
3781;SDS011;6881;49.962;7.718;2023-02-01T15:49:23;9.27;;;3.17;;
3781;SDS011;6881;49.962;7.718;2023-02-01T15:51:50;12.67;;;2.20;;
3781;SDS011;6881;49.962;7.718;2023-02-01T15:54:17;7.67;;;1.83;;
3781;SDS011;6881;49.962;7.718;2023-02-01T15:56:47;12.00;;;5.03;;
3781;SDS011;6881;49.962;7.718;2023-02-01T15:59:18;11.30;;;4.83;;
3781;SDS011;6881;49.962;7.718;2023-02-01T16:01:45;14.33;;;4.07;;
3781;SDS011;6881;49.962;7.718;2023-02-01T16:09:15;17.13;;;7.40;;
3781;SDS011;6881;49.962;7.718;2023-02-01T16:11:46;10.67;;;4.60;;
3781;SDS011;6881;49.962;7.718;2023-02-01T16:14:23;13.70;;;4.20;;
3781;SDS011;6881;49.962;7.718;2023-02-01T16:16:49;18.30;;;6.03;;
3781;SDS011;6881;49.962;7.718;2023-02-01T16:19:14;14.27;;;7.10;;
3781;SDS011;6881;49.962;7.718;2023-02-01T16:21:40;15.70;;;6.33;;
3781;SDS011;6881;49.962;7.718;2023-02-01T16:24:05;15.50;;;5.80;;
3781;SDS011;6881;49.962;7.718;2023-02-01T16:26:31;28.83;;;8.67;;
3781;SDS011;6881;49.962;7.718;2023-02-01T16:28:57;23.57;;;8.90;;
3781;SDS011;6881;49.962;7.718;2023-02-01T16:31:27;20.60;;;7.93;;
3781;SDS011;6881;49.962;7.718;2023-02-01T16:33:53;18.47;;;9.00;;
3781;SDS011;6881;49.962;7.718;2023-02-01T16:36:19;16.23;;;7.60;;
3781;SDS011;6881;49.962;7.718;2023-02-01T16:38:44;19.90;;;8.53;;
3781;SDS011;6881;49.962;7.718;2023-02-01T16:41:15;27.33;;;8.27;;
3781;SDS011;6881;49.962;7.718;2023-02-01T16:43:42;14.80;;;8.93;;
3781;SDS011;6881;49.962;7.718;2023-02-01T16:46:12;21.57;;;7.87;;
3781;SDS011;6881;49.962;7.718;2023-02-01T16:48:40;14.90;;;5.73;;
3781;SDS011;6881;49.962;7.718;2023-02-01T16:51:10;9.97;;;4.70;;
3781;SDS011;6881;49.962;7.718;2023-02-01T16:53:37;14.80;;;5.43;;
3781;SDS011;6881;49.962;7.718;2023-02-01T16:58:38;8.67;;;5.30;;
3781;SDS011;6881;49.962;7.718;2023-02-01T17:01:06;8.33;;;3.60;;
3781;SDS011;6881;49.962;7.718;2023-02-01T17:03:31;11.90;;;3.70;;
3781;SDS011;6881;49.962;7.718;2023-02-01T17:05:56;8.57;;;4.10;;
3781;SDS011;6881;49.962;7.718;2023-02-01T17:08:26;6.70;;;3.60;;
3781;SDS011;6881;49.962;7.718;2023-02-01T17:10:54;9.07;;;2.90;;
3781;SDS011;6881;49.962;7.718;2023-02-01T17:13:19;8.70;;;3.53;;
3781;SDS011;6881;49.962;7.718;2023-02-01T17:16:00;6.93;;;3.33;;
3781;SDS011;6881;49.962;7.718;2023-02-01T17:19:31;7.70;;;2.60;;
3781;SDS011;6881;49.962;7.718;2023-02-01T17:21:41;4.70;;;2.70;;
3781;SDS011;6881;49.962;7.718;2023-02-01T17:24:15;14.60;;;3.57;;
3781;SDS011;6881;49.962;7.718;2023-02-01T17:26:41;12.63;;;4.30;;
3781;SDS011;6881;49.962;7.718;2023-02-01T17:29:07;12.70;;;2.87;;
3781;SDS011;6881;49.962;7.718;2023-02-01T17:31:34;9.67;;;5.10;;
3781;SDS011;6881;49.962;7.718;2023-02-01T17:34:04;8.23;;;3.67;;
3781;SDS011;6881;49.962;7.718;2023-02-01T17:36:29;8.63;;;2.50;;
3781;SDS011;6881;49.962;7.718;2023-02-01T17:38:54;8.40;;;3.57;;
3781;SDS011;6881;49.962;7.718;2023-02-01T17:41:20;5.73;;;2.20;;
3781;SDS011;6881;49.962;7.718;2023-02-01T17:43:45;11.23;;;2.60;;
3781;SDS011;6881;49.962;7.718;2023-02-01T17:48:38;9.97;;;2.30;;
3781;SDS011;6881;49.962;7.718;2023-02-01T17:51:04;7.97;;;4.00;;
3781;SDS011;6881;49.962;7.718;2023-02-01T17:53:30;5.00;;;2.87;;
3781;SDS011;6881;49.962;7.718;2023-02-01T17:55:58;8.87;;;2.23;;
3781;SDS011;6881;49.962;7.718;2023-02-01T17:58:23;5.60;;;1.90;;
3781;SDS011;6881;49.962;7.718;2023-02-01T18:00:50;5.53;;;3.13;;
3781;SDS011;6881;49.962;7.718;2023-02-01T18:03:26;4.33;;;2.30;;
3781;SDS011;6881;49.962;7.718;2023-02-01T18:05:53;5.70;;;1.97;;